AirNav   Air Wisconsin Up To $57,000 Bonus
 
 1004 users online  

89AK Lincoln Village Airpark
Wasilla, Alaska, USA

GOING TO WASILLA?


FAA INFORMATION EFFECTIVE 15 AUGUST 2019

Location

FAA Identifier: 89AK
Lat/Long: 61-33-33.8000N 149-42-19.6900W
61-33.563333N 149-42.328167W
61.5593889,-149.7054694
(estimated)
Elevation: 250 ft. / 76 m (estimated)
Variation: 24E (1995)
From city: 8 miles SW of WASILLA, AK
Time zone: UTC -8 (UTC -9 during Standard Time)
Zip code: 99652

Airport Operations

Airport use: Private use. Permission required prior to landing
Activation date: 03/2000
Control tower: no
ARTCC: ANCHORAGE CENTER
FSS: KENAI FLIGHT SERVICE STATION [907-283-8469]
Attendance: UNATNDD
Wind indicator: yes
Segmented circle: no

Airport Communications

CTAF: 122.8
WX AWOS-3P at IYS (5 nm E): 135.25 (907-373-3801)
WX AWOS-3P at BCV (10 nm SE): 135.55 (907-688-0826)
WX AWOS-3 at FRN (18 nm S): 134.25 or 118.525 (907-384-0132)
WX ASOS at PAQ (18 nm E): 134.75 (907-746-6675)

Nearby radio navigation aids

VOR radial/distance  VOR name  Freq  Var
BGQr076/7.5BIG LAKE VORTAC112.5019E
TEDr359/24.6ANCHORAGE VOR/DME113.1518E

 
NDB name  Hdg/Dist  Freq  Var  ID
CAMPBELL LAKE007/25.333816ECMQ -.-. -- --.-

Airport Services

Runway Information

Runway 16/34

Dimensions: 2000 x 200 ft. / 610 x 61 m
Surface: gravel
Operational restrictions: RY 16/34 SLOPES UP TO THE MIDDLE OF THE FIELD FROM BOTH ENDS.
RUNWAY 16  RUNWAY 34
Traffic pattern: leftleft

Airport Ownership and Management from official FAA records

Ownership: Privately-owned
Owner: LINCOLN VILLAGE AIRPARK ASSOCIATION
P.O. BOX 870526
WASILLA, AK 99687
Phone 907-892-2010
Manager: DENNIS GIESE
P.O. BOX 870526
WASILLA, AK 99687
Phone (907) 841-4933

Airport Operational Statistics

Aircraft based on the field: 16
Single engine airplanes: 15
Multi engine airplanes: 1
    

Additional Remarks

RY 16/34 SOFT WHEN WET.

Instrument Procedures

There are no published instrument procedures at 89AK.

Some nearby airports with instrument procedures:

PAGQ - Big Lake Airport (3 nm SW)
PAWS - Wasilla Airport (5 nm E)
PAUO - Willow Airport (15 nm NW)
PAFR - Bryant Army Airfield Heliport (18 nm S)
PAAQ - Warren "Bud" Woods Palmer Municipal Airport (18 nm E)
PAED - Elmendorf Air Force Base (19 nm S)
 
Loc | Ops | Rwys | IFR | FBO | Links
Com | Nav | Svcs | Stats | Notes

Crowley
 
Area around 89AK (Lincoln Village Airpark)
 
Road maps at: MapQuest Bing Google
 
Aerial photo
No photo
 
Sectional chart

 
Airport distance calculator
Flying to Lincoln Village Airpark? Find the distance to fly.

From to 89AK

Sunrise and sunset
Times for 24-Aug-2019
 Local
(UTC-8)
 Zulu
(UTC)
Morning civil twilight05:4013:40
Sunrise06:3014:30
Sunset21:3205:32
Evening civil twilight22:2206:22

Current date and time
Zulu (UTC)  24-Aug-2019 14:49:20
Local (UTC-8)  24-Aug-2019 06:49:20
 
METAR
PABV 
10nm SE 
241356Z AUTO VRB03KT 10SM CLR 08/03 A2963 RMK AO2 SLP040 T00830033
PAFR 
18nm S 
241358Z AUTO 00000KT 10SM CLR 03/01 A2960 RMK AO2 SLP030 T00260007 $
PAAQ 
18nm E 
241353Z AUTO 00000KT 10SM FU OVC070 06/06 A2961 RMK AO2 SLP028 T00610056 TSNO
PAED 
19nm S 
241411Z 00000KT 6SM FU FEW080 FEW200 08/04 A2962 RMK SLP026 T00780044 52010 $
TAF
PAAQ 
18nm E 
241136Z 2412/2512 36006KT P6SM FEW200
PAED 
19nm S 
241100Z 2411/2517 08006KT 8000 FU FEW070 QNH2959INS BECMG 2419/2420 27006KT 9000 FU SCT090 QNH2969INS BECMG 2507/2508 12006KT 9999 NSW FEW060 SCT070 QNH2980INS TX20/2423Z TN08/2510Z
NOTAMs
Click for the latest NOTAMs
NOTAMs are issued by the DoD/FAA and will open in a separate window not controlled by AirNav.

 

 
 

Would you like to see your business listed on this page?

 If your business provides an interesting product or service to pilots, flight crews, aircraft, or users of the Lincoln Village Airpark, you should consider listing it here.  To start the listing process, click on the button below
 
Add a business
 

Other Pages about Lincoln Village Airpark

Update a link
 
Copyright © AirNav, LLC. All rights reserved. Privacy Policy  Contact